createdAt,value
2022-10-24T00:01:25.381Z,12.71
2022-10-24T00:04:31.671Z,12.70
2022-10-24T00:07:37.983Z,12.64
2022-10-24T00:10:44.810Z,12.19
2022-10-24T00:13:51.694Z,12.14
2022-10-24T00:16:56.991Z,12.14
2022-10-24T00:20:05.388Z,12.13
2022-10-24T00:23:11.058Z,12.14
2022-10-24T00:26:17.617Z,12.08
2022-10-24T00:29:23.604Z,12.26
2022-10-24T00:32:30.460Z,12.35
2022-10-24T00:35:36.322Z,12.37
2022-10-24T00:38:42.957Z,12.38
2022-10-24T00:41:53.081Z,12.44
2022-10-24T00:45:00.348Z,12.16
2022-10-24T00:48:06.111Z,12.06
2022-10-24T00:51:19.434Z,12.13
2022-10-24T00:54:26.112Z,12.19
2022-10-24T00:57:59.670Z,12.16
2022-10-24T01:01:05.387Z,12.17
2022-10-24T01:04:10.273Z,12.14
2022-10-24T01:07:30.090Z,12.20
2022-10-24T01:10:47.177Z,12.42
2022-10-24T01:14:16.243Z,12.20
2022-10-24T01:17:39.394Z,12.10
2022-10-24T01:21:25.696Z,12.08
2022-10-24T01:25:08.363Z,12.07
2022-10-24T01:28:27.228Z,11.95
2022-10-24T01:31:52.593Z,11.91
2022-10-24T01:35:11.476Z,11.93
2022-10-24T01:38:29.333Z,11.87
2022-10-24T01:41:27.209Z,11.99
2022-10-24T01:44:42.694Z,11.98
2022-10-24T01:47:56.523Z,11.92
2022-10-24T01:51:03.522Z,11.92
2022-10-24T01:54:11.005Z,11.99
2022-10-24T01:57:17.756Z,12.07
2022-10-24T02:00:24.597Z,12.02
2022-10-24T02:03:39.575Z,12.02
2022-10-24T02:06:54.841Z,12.00
2022-10-24T02:10:00.914Z,12.08
2022-10-24T02:13:10.849Z,12.07
2022-10-24T02:16:17.019Z,12.11
2022-10-24T02:19:23.208Z,12.15
2022-10-24T02:22:58.277Z,12.22
2022-10-24T02:26:05.408Z,12.29
2022-10-24T02:29:13.097Z,12.30
2022-10-24T02:32:21.963Z,12.31
2022-10-24T02:35:22.462Z,12.25
2022-10-24T02:38:36.718Z,12.32
2022-10-24T02:41:46.797Z,12.34
2022-10-24T02:44:55.429Z,12.52
2022-10-24T02:48:01.307Z,12.40
2022-10-24T02:51:06.540Z,12.44
2022-10-24T02:54:12.633Z,12.38
2022-10-24T02:57:21.032Z,12.33
2022-10-24T03:00:27.176Z,12.48
2022-10-24T03:03:33.156Z,12.58
2022-10-24T03:06:39.006Z,12.52
2022-10-24T03:09:45.512Z,12.50
2022-10-24T03:12:51.275Z,12.27
2022-10-24T03:15:57.983Z,12.39
2022-10-24T03:18:57.490Z,12.54
2022-10-24T03:21:50.595Z,12.58
2022-10-24T03:24:57.474Z,12.81
2022-10-24T03:28:03.695Z,12.62
2022-10-24T03:31:10.587Z,12.54
2022-10-24T03:34:17.106Z,12.57
2022-10-24T03:37:22.827Z,12.77
2022-10-24T03:40:27.572Z,12.70
2022-10-24T03:43:32.874Z,12.72
2022-10-24T03:46:40.902Z,12.76
2022-10-24T03:49:47.094Z,12.71
2022-10-24T03:52:54.017Z,13.01
2022-10-24T03:55:59.959Z,13.04
2022-10-24T03:59:06.024Z,12.99
2022-10-24T04:02:12.644Z,13.09
2022-10-24T04:05:18.611Z,13.01
2022-10-24T04:08:25.225Z,13.03
2022-10-24T04:11:31.669Z,12.92
2022-10-24T04:14:31.149Z,12.62
2022-10-24T04:17:38.904Z,12.55
2022-10-24T04:20:43.962Z,12.25
2022-10-24T04:23:51.549Z,12.22
2022-10-24T04:26:57.089Z,12.10
2022-10-24T04:30:03.776Z,12.21
2022-10-24T04:33:09.585Z,12.10
2022-10-24T04:36:15.812Z,12.20
2022-10-24T04:39:21.751Z,12.24
2022-10-24T04:42:29.035Z,12.43
2022-10-24T04:45:34.423Z,12.42
2022-10-24T04:48:40.662Z,12.43
2022-10-24T04:51:46.216Z,12.51
2022-10-24T04:54:52.524Z,12.52
2022-10-24T04:57:57.962Z,12.70
2022-10-24T05:01:04.222Z,12.67
2022-10-24T05:04:10.624Z,12.65
2022-10-24T05:07:17.042Z,12.64
2022-10-24T05:10:23.913Z,12.73
2022-10-24T05:13:32.975Z,12.69
2022-10-24T05:16:38.858Z,12.58
2022-10-24T05:19:46.171Z,12.68
2022-10-24T05:22:51.673Z,12.69
2022-10-24T05:25:58.084Z,12.61
2022-10-24T05:29:04.702Z,12.51
2022-10-24T05:32:11.230Z,12.55
2022-10-24T05:35:16.860Z,12.57
2022-10-24T05:38:22.716Z,12.71
2022-10-24T05:41:29.474Z,12.79
2022-10-24T05:44:35.364Z,12.89
2022-10-24T05:47:42.218Z,12.82
2022-10-24T05:50:49.629Z,12.93
2022-10-24T05:53:56.508Z,13.05
2022-10-24T05:57:20.773Z,13.13
2022-10-24T06:00:29.210Z,13.48
2022-10-24T06:03:35.001Z,13.55
2022-10-24T06:06:41.761Z,13.66
2022-10-24T06:09:48.518Z,13.78
2022-10-24T06:12:55.742Z,13.70
2022-10-24T06:16:01.782Z,13.71
2022-10-24T06:19:08.226Z,13.87
2022-10-24T06:22:13.245Z,13.81
2022-10-24T06:25:19.677Z,14.04
2022-10-24T06:28:25.183Z,14.08
2022-10-24T06:31:26.557Z,14.27
2022-10-24T06:34:26.062Z,14.05
2022-10-24T06:37:31.850Z,14.02
2022-10-24T06:40:38.429Z,14.13
2022-10-24T06:43:44.727Z,14.17
2022-10-24T06:46:51.197Z,14.16
2022-10-24T06:49:57.529Z,14.01
2022-10-24T06:53:07.243Z,14.22
2022-10-24T06:56:20.155Z,14.33
2022-10-24T06:59:29.018Z,14.62
2022-10-24T07:02:35.185Z,14.51
2022-10-24T07:05:41.587Z,14.83
2022-10-24T07:08:47.961Z,15.08
2022-10-24T07:11:54.071Z,15.17
2022-10-24T07:14:59.406Z,15.18
2022-10-24T07:18:04.464Z,15.02
2022-10-24T07:21:10.435Z,14.84
2022-10-24T07:24:16.572Z,15.00
2022-10-24T07:27:22.232Z,14.89
2022-10-24T07:30:32.308Z,14.95
2022-10-24T07:33:38.322Z,15.00
2022-10-24T07:36:44.612Z,15.11
2022-10-24T07:39:49.721Z,15.06
2022-10-24T07:42:56.430Z,14.91
2022-10-24T07:49:08.250Z,15.07
2022-10-24T07:52:14.830Z,15.25
2022-10-24T07:55:22.807Z,15.37
2022-10-24T07:58:28.302Z,15.25
2022-10-24T08:01:36.925Z,15.28
2022-10-24T08:04:43.910Z,15.40
2022-10-24T08:07:56.083Z,15.39
2022-10-24T08:14:08.907Z,15.74
2022-10-24T08:17:14.892Z,16.06
2022-10-24T08:20:21.606Z,16.12
2022-10-24T08:23:26.903Z,16.16
2022-10-24T08:26:35.533Z,16.09
2022-10-24T08:29:36.625Z,16.06
2022-10-24T08:32:43.457Z,16.26
2022-10-24T08:35:49.151Z,16.35
2022-10-24T08:38:54.059Z,16.34
2022-10-24T08:42:18.116Z,15.98
2022-10-24T08:45:35.756Z,16.06
2022-10-24T08:48:49.366Z,16.10
2022-10-24T08:52:04.434Z,15.81
2022-10-24T08:55:48.010Z,15.69
2022-10-24T08:58:28.621Z,15.67
2022-10-24T09:02:00.620Z,15.75
2022-10-24T09:05:09.869Z,15.89
2022-10-24T09:08:21.718Z,15.84
2022-10-24T09:11:32.671Z,15.89
2022-10-24T09:14:43.173Z,15.88
2022-10-24T09:17:50.518Z,15.90
2022-10-24T09:20:56.974Z,15.95
2022-10-24T09:24:02.497Z,15.94
2022-10-24T09:27:11.220Z,16.10
2022-10-24T09:30:18.366Z,16.14
2022-10-24T09:33:39.548Z,16.22
2022-10-24T09:36:44.316Z,16.32
2022-10-24T09:39:50.096Z,16.27
2022-10-24T09:42:55.594Z,16.23
2022-10-24T09:46:12.007Z,16.20
2022-10-24T09:49:22.832Z,16.37
2022-10-24T09:52:39.746Z,16.47
2022-10-24T09:55:45.844Z,16.53
2022-10-24T09:58:44.567Z,16.53
2022-10-24T10:01:30.792Z,16.58
2022-10-24T10:04:27.040Z,16.61
2022-10-24T10:07:34.058Z,16.64
2022-10-24T10:10:48.719Z,16.57
2022-10-24T10:14:03.673Z,16.42
2022-10-24T10:17:17.649Z,16.56
2022-10-24T10:20:28.638Z,16.65
2022-10-24T10:23:52.419Z,16.91
2022-10-24T10:27:00.600Z,16.99
2022-10-24T10:30:31.051Z,16.67
2022-10-24T10:33:59.880Z,16.62
2022-10-24T10:37:22.407Z,16.46
2022-10-24T10:40:40.052Z,16.75
2022-10-24T10:44:05.137Z,16.56
2022-10-24T10:47:42.175Z,16.57
2022-10-24T10:50:56.598Z,16.69
2022-10-24T10:54:23.690Z,16.96
2022-10-24T10:57:45.299Z,16.93
2022-10-24T11:01:10.480Z,16.99
2022-10-24T11:04:37.431Z,17.20
2022-10-24T11:07:53.814Z,17.17
2022-10-24T11:11:08.753Z,17.01
2022-10-24T11:14:46.432Z,16.99
2022-10-24T11:18:27.868Z,17.05
2022-10-24T11:21:35.408Z,17.12
2022-10-24T11:24:41.929Z,17.24
2022-10-24T11:27:54.207Z,17.40
2022-10-24T11:31:09.935Z,17.46
2022-10-24T11:34:23.079Z,17.33
2022-10-24T11:37:45.223Z,17.14
2022-10-24T11:40:52.585Z,17.14
2022-10-24T11:43:57.783Z,17.04
2022-10-24T11:47:08.491Z,16.92
2022-10-24T11:50:38.024Z,16.92
2022-10-24T11:53:53.391Z,16.90
2022-10-24T11:57:10.885Z,16.87
2022-10-24T12:00:17.012Z,16.99
2022-10-24T12:03:43.374Z,17.01
2022-10-24T12:07:08.870Z,16.89
2022-10-24T12:10:46.639Z,16.82
2022-10-24T12:14:17.820Z,16.94
2022-10-24T12:17:45.718Z,16.83
2022-10-24T12:20:51.933Z,16.91
2022-10-24T12:23:56.848Z,16.87
2022-10-24T12:27:17.603Z,16.87
2022-10-24T12:30:34.637Z,16.90
2022-10-24T12:33:41.122Z,16.88
2022-10-24T12:37:35.111Z,16.97
2022-10-24T12:41:18.710Z,16.69
2022-10-24T12:44:45.117Z,16.69
2022-10-24T12:48:00.829Z,16.34
2022-10-24T12:51:19.076Z,16.34
2022-10-24T12:54:33.345Z,16.42
2022-10-24T12:57:52.348Z,16.36
2022-10-24T13:01:15.527Z,16.19
2022-10-24T13:05:16.946Z,16.26
2022-10-24T13:08:48.824Z,16.22
2022-10-24T13:12:18.609Z,16.22
2022-10-24T13:15:32.647Z,15.91
2022-10-24T13:19:10.360Z,16.00
2022-10-24T13:22:16.266Z,15.98
2022-10-24T13:25:50.761Z,15.87
2022-10-24T13:28:55.024Z,15.88
2022-10-24T13:32:04.712Z,15.87
2022-10-24T13:35:10.606Z,15.92
2022-10-24T13:38:16.049Z,15.93
2022-10-24T13:41:22.796Z,16.01
2022-10-24T13:44:55.325Z,16.07
2022-10-24T13:48:05.888Z,16.11
2022-10-24T13:51:19.673Z,16.10
2022-10-24T13:54:32.010Z,16.05
2022-10-24T13:57:47.992Z,15.98
2022-10-24T14:00:59.523Z,15.98
2022-10-24T14:03:59.387Z,15.97
2022-10-24T14:07:05.713Z,16.02
2022-10-24T14:10:26.732Z,15.95
2022-10-24T14:13:32.398Z,16.04
2022-10-24T14:16:46.389Z,15.94
2022-10-24T14:19:55.498Z,15.95
2022-10-24T14:23:01.561Z,15.83
2022-10-24T14:26:22.428Z,15.74
2022-10-24T14:29:41.468Z,15.75
2022-10-24T14:32:46.772Z,15.74
2022-10-24T14:35:56.678Z,15.71
2022-10-24T14:39:03.225Z,15.87
2022-10-24T14:42:08.949Z,15.58
2022-10-24T14:45:14.631Z,15.40
2022-10-24T14:48:23.388Z,15.40
2022-10-24T14:51:44.591Z,15.59
2022-10-24T14:54:50.240Z,15.57
2022-10-24T14:58:03.516Z,15.58
2022-10-24T15:01:09.858Z,15.56
2022-10-24T15:04:20.226Z,15.50
2022-10-24T15:07:52.314Z,15.66
2022-10-24T15:10:54.438Z,15.52
2022-10-24T15:14:07.203Z,15.51
2022-10-24T15:17:11.265Z,15.28
2022-10-24T15:20:16.859Z,15.33
2022-10-24T15:23:34.852Z,15.48
2022-10-24T15:26:52.692Z,15.50
2022-10-24T15:29:59.663Z,15.53
2022-10-24T15:33:05.403Z,15.53
2022-10-24T15:36:11.545Z,15.49
2022-10-24T15:39:24.171Z,15.33
2022-10-24T15:42:29.692Z,15.38
2022-10-24T15:45:35.439Z,15.43
2022-10-24T15:48:42.105Z,15.39
2022-10-24T15:51:50.362Z,15.30
2022-10-24T15:54:56.654Z,15.35
2022-10-24T15:58:04.869Z,15.36
2022-10-24T16:00:58.182Z,15.29
2022-10-24T16:04:05.216Z,15.24
2022-10-24T16:07:11.177Z,15.21
2022-10-24T16:10:16.992Z,15.22
2022-10-24T16:13:24.853Z,15.25
2022-10-24T16:16:30.480Z,15.09
2022-10-24T16:19:38.090Z,15.06
2022-10-24T16:22:43.887Z,15.09
2022-10-24T16:25:51.754Z,15.15
2022-10-24T16:28:58.297Z,15.08
2022-10-24T16:32:04.845Z,15.12
2022-10-24T16:35:10.035Z,15.07
2022-10-24T16:38:17.561Z,15.13
2022-10-24T16:41:29.428Z,15.16
2022-10-24T16:44:36.313Z,14.97
2022-10-24T16:47:42.339Z,14.76
2022-10-24T16:50:48.501Z,14.66
2022-10-24T16:53:48.527Z,14.48
2022-10-24T16:56:57.049Z,14.31
2022-10-24T17:00:02.408Z,14.45
2022-10-24T17:03:08.831Z,14.92
2022-10-24T17:06:14.501Z,14.79
2022-10-24T17:09:21.856Z,14.54
2022-10-24T17:12:28.246Z,14.54
2022-10-24T17:15:34.933Z,14.40
2022-10-24T17:18:40.101Z,14.40
2022-10-24T17:21:48.675Z,14.47
2022-10-24T17:24:47.824Z,14.54
2022-10-24T17:27:54.450Z,14.66
2022-10-24T17:31:01.039Z,14.67
2022-10-24T17:34:06.277Z,14.70
2022-10-24T17:37:30.284Z,14.66
2022-10-24T17:40:37.761Z,14.68
2022-10-24T17:43:42.932Z,14.59
2022-10-24T17:46:48.569Z,14.65
2022-10-24T17:49:53.892Z,14.70
2022-10-24T17:53:00.430Z,14.78
2022-10-24T17:56:06.154Z,14.78
2022-10-24T17:59:11.420Z,14.88
2022-10-24T18:02:16.683Z,14.90
2022-10-24T18:05:22.648Z,15.03
2022-10-24T18:08:28.650Z,15.16
2022-10-24T18:11:34.543Z,14.79
2022-10-24T18:14:41.031Z,14.85
2022-10-24T18:17:46.805Z,14.82
2022-10-24T18:20:53.040Z,14.75
2022-10-24T18:23:58.471Z,14.46
2022-10-24T18:27:04.355Z,14.41
2022-10-24T18:30:10.897Z,14.48
2022-10-24T18:33:16.250Z,14.48
2022-10-24T18:36:26.843Z,14.32
2022-10-24T18:39:31.964Z,14.37
2022-10-24T18:42:50.367Z,14.23
2022-10-24T18:45:59.696Z,14.16
2022-10-24T18:49:08.236Z,14.28
2022-10-24T18:52:44.056Z,14.09
2022-10-24T18:55:51.965Z,13.90
2022-10-24T18:58:59.059Z,14.05
2022-10-24T19:02:42.613Z,13.87
2022-10-24T19:05:55.366Z,13.83
2022-10-24T19:09:02.224Z,13.65
2022-10-24T19:12:08.540Z,13.61
2022-10-24T19:15:13.564Z,13.49
2022-10-24T19:18:20.566Z,13.34
2022-10-24T19:21:26.790Z,13.28
2022-10-24T19:24:32.406Z,13.33
2022-10-24T19:27:39.524Z,13.27
2022-10-24T19:30:46.893Z,13.14
2022-10-24T19:33:53.239Z,12.95
2022-10-24T19:36:59.544Z,12.95
2022-10-24T19:40:04.926Z,13.00
2022-10-24T19:43:09.657Z,13.19
2022-10-24T19:46:20.507Z,13.23
2022-10-24T19:49:25.653Z,13.11
2022-10-24T19:52:31.292Z,13.19
2022-10-24T19:55:29.789Z,13.31
2022-10-24T19:58:29.633Z,13.20
2022-10-24T20:01:38.612Z,13.10
2022-10-24T20:04:48.987Z,13.22
2022-10-24T20:07:53.911Z,13.20
2022-10-24T20:11:06.430Z,13.33
2022-10-24T20:14:13.610Z,13.34
2022-10-24T20:17:19.961Z,13.42
2022-10-24T20:20:26.249Z,13.47
2022-10-24T20:23:32.313Z,13.62
2022-10-24T20:26:39.552Z,13.48
2022-10-24T20:29:45.751Z,13.35
2022-10-24T20:32:51.789Z,12.98
2022-10-24T20:35:57.712Z,13.14
2022-10-24T20:39:06.495Z,13.05
2022-10-24T20:42:11.402Z,12.99
2022-10-24T20:45:21.928Z,12.88
2022-10-24T20:48:23.984Z,13.04
2022-10-24T20:51:31.910Z,12.92
2022-10-24T20:54:37.206Z,12.93
2022-10-24T20:57:44.475Z,12.94
2022-10-24T21:00:51.007Z,12.88
2022-10-24T21:03:57.914Z,12.87
2022-10-24T21:07:04.759Z,12.92
2022-10-24T21:10:11.206Z,12.92
2022-10-24T21:13:18.560Z,12.99
2022-10-24T21:16:24.192Z,13.08
2022-10-24T21:19:29.485Z,13.23
2022-10-24T21:22:35.091Z,13.23
2022-10-24T21:25:40.189Z,13.23
2022-10-24T21:28:46.035Z,13.22
2022-10-24T21:31:52.703Z,13.24
2022-10-24T21:34:57.909Z,13.28
2022-10-24T21:38:05.972Z,13.43
2022-10-24T21:41:19.915Z,13.50
2022-10-24T21:44:25.978Z,13.41
2022-10-24T21:47:31.879Z,13.38
2022-10-24T21:50:37.893Z,13.46
2022-10-24T21:53:43.247Z,13.43
2022-10-24T21:56:50.490Z,13.50
2022-10-24T21:59:56.320Z,13.39
2022-10-24T22:03:04.060Z,14.39
2022-10-24T22:06:04.474Z,13.73
2022-10-24T22:09:03.881Z,13.63
2022-10-24T22:12:09.756Z,13.47
2022-10-24T22:15:15.251Z,13.31
2022-10-24T22:18:21.955Z,13.14
2022-10-24T22:21:37.874Z,13.30
2022-10-24T22:24:44.018Z,13.11
2022-10-24T22:27:50.548Z,12.97
2022-10-24T22:30:57.234Z,13.19
2022-10-24T22:34:02.836Z,13.09
2022-10-24T22:37:34.570Z,13.00
2022-10-24T22:40:41.956Z,13.02
2022-10-24T22:43:47.236Z,13.27
2022-10-24T22:47:40.541Z,12.96
2022-10-24T22:51:09.479Z,12.94
2022-10-24T22:54:15.705Z,12.98
2022-10-24T22:57:21.444Z,13.07
2022-10-24T23:00:28.188Z,13.03
2022-10-24T23:03:47.731Z,12.98
2022-10-24T23:07:05.044Z,13.02
2022-10-24T23:10:10.642Z,13.09
2022-10-24T23:13:17.672Z,13.12
2022-10-24T23:16:38.467Z,13.15
2022-10-24T23:19:46.001Z,13.10
2022-10-24T23:22:58.427Z,13.14
2022-10-24T23:26:01.474Z,13.35
2022-10-24T23:29:21.801Z,13.29
2022-10-24T23:32:31.631Z,13.44
2022-10-24T23:35:37.770Z,13.42
2022-10-24T23:38:42.993Z,13.36
2022-10-24T23:41:43.101Z,13.39
2022-10-24T23:44:49.759Z,13.33
2022-10-24T23:48:20.356Z,13.29
2022-10-24T23:51:29.807Z,13.37
2022-10-24T23:54:40.504Z,13.32
2022-10-24T23:57:48.564Z,13.35
